createdAt,value
2019-05-02T00:03:25.998Z,8.90
2019-05-02T00:07:42.452Z,8.80
2019-05-02T00:12:00.121Z,8.80
2019-05-02T00:16:17.363Z,8.80
2019-05-02T00:20:34.302Z,8.70
2019-05-02T00:24:50.742Z,8.70
2019-05-02T00:29:07.344Z,8.60
2019-05-02T00:33:23.820Z,8.60
2019-05-02T00:37:40.268Z,8.50
2019-05-02T00:41:56.790Z,8.50
2019-05-02T00:46:13.339Z,8.50
2019-05-02T00:50:31.800Z,8.40
2019-05-02T00:54:48.252Z,8.30
2019-05-02T00:59:07.642Z,8.20
2019-05-02T01:03:23.468Z,8.20
2019-05-02T01:07:39.979Z,8.10
2019-05-02T01:11:56.415Z,8.00
2019-05-02T01:16:15.140Z,8.00
2019-05-02T01:20:31.705Z,7.90
2019-05-02T01:24:48.173Z,7.80
2019-05-02T01:29:06.513Z,7.70
2019-05-02T01:33:30.598Z,7.70
2019-05-02T01:38:05.521Z,7.60
2019-05-02T01:42:22.202Z,7.60
2019-05-02T01:46:38.886Z,7.50
2019-05-02T01:50:55.331Z,7.40
2019-05-02T01:55:11.966Z,7.40
2019-05-02T01:59:29.085Z,7.30
2019-05-02T02:03:47.319Z,7.30
2019-05-02T02:08:05.132Z,7.30
2019-05-02T02:12:21.708Z,7.20
2019-05-02T02:16:39.283Z,7.20
2019-05-02T02:21:01.467Z,7.20
2019-05-02T02:25:32.149Z,7.10
2019-05-02T02:29:47.739Z,7.00
2019-05-02T02:34:04.180Z,7.00
2019-05-02T02:38:26.923Z,7.00
2019-05-02T02:42:39.313Z,7.00
2019-05-02T02:46:55.744Z,7.00
2019-05-02T02:51:22.678Z,6.90
2019-05-02T02:55:30.681Z,6.90
2019-05-02T02:59:47.303Z,6.90
2019-05-02T03:04:09.322Z,6.90
2019-05-02T03:08:22.742Z,6.80
2019-05-02T03:12:45.451Z,6.80
2019-05-02T03:17:02.052Z,6.80
2019-05-02T03:21:20.800Z,6.80
2019-05-02T03:25:49.688Z,6.80
2019-05-02T03:29:56.258Z,6.80
2019-05-02T03:34:12.903Z,6.80
2019-05-02T03:38:32.542Z,6.80
2019-05-02T03:42:48.200Z,6.90
2019-05-02T03:47:05.201Z,6.90
2019-05-02T03:51:25.225Z,6.90
2019-05-02T03:55:40.822Z,6.90
2019-05-02T03:59:57.623Z,6.90
2019-05-02T04:04:20.542Z,6.90
2019-05-02T04:08:34.557Z,6.90
2019-05-02T04:12:53.208Z,7.00
2019-05-02T04:17:10.841Z,7.00
2019-05-02T04:21:27.696Z,7.10
2019-05-02T04:25:44.992Z,7.20
2019-05-02T04:30:09.724Z,7.20
2019-05-02T04:34:20.455Z,7.30
2019-05-02T04:38:44.506Z,7.30
2019-05-02T04:43:01.995Z,7.50
2019-05-02T04:47:18.608Z,7.70
2019-05-02T04:51:33.412Z,7.90
2019-05-02T04:56:01.721Z,8.20
2019-05-02T05:00:11.835Z,8.50
2019-05-02T05:04:33.352Z,8.70
2019-05-02T05:08:48.243Z,8.80
2019-05-02T05:13:07.617Z,9.00
2019-05-02T05:17:24.991Z,9.20
2019-05-02T05:21:42.443Z,9.40
2019-05-02T05:26:03.516Z,9.40
2019-05-02T05:30:18.683Z,9.50
2019-05-02T05:34:35.572Z,9.60
2019-05-02T05:38:52.086Z,9.80
2019-05-02T05:43:14.505Z,10.00
2019-05-02T05:47:27.861Z,10.10
2019-05-02T05:51:44.569Z,10.10
2019-05-02T05:56:02.620Z,10.10
2019-05-02T06:00:23.021Z,10.10
2019-05-02T06:04:38.706Z,10.10
2019-05-02T06:08:55.534Z,10.20
2019-05-02T06:13:12.979Z,10.30
2019-05-02T06:17:30.489Z,10.40
2019-05-02T06:21:47.280Z,10.40
2019-05-02T06:26:07.817Z,10.40
2019-05-02T06:30:27.116Z,10.50
2019-05-02T06:34:46.503Z,10.50
2019-05-02T06:38:59.503Z,10.70
2019-05-02T06:43:16.008Z,10.80
2019-05-02T06:47:35.982Z,11.00
2019-05-02T06:51:55.863Z,11.20
2019-05-02T06:56:12.660Z,11.30
2019-05-02T07:00:35.555Z,11.70
2019-05-02T07:04:47.455Z,11.80
2019-05-02T07:09:05.463Z,11.90
2019-05-02T07:13:21.932Z,11.90
2019-05-02T07:17:40.577Z,12.00
2019-05-02T07:21:58.502Z,12.10
2019-05-02T07:26:21.197Z,12.20
2019-05-02T07:30:36.319Z,12.30
2019-05-02T07:34:53.034Z,12.50
2019-05-02T07:39:10.576Z,12.80
2019-05-02T07:43:32.699Z,13.00
2019-05-02T07:47:49.519Z,13.30
2019-05-02T07:52:06.155Z,13.50
2019-05-02T07:56:22.716Z,13.70
2019-05-02T08:00:39.799Z,14.00
2019-05-02T08:04:56.730Z,14.20
2019-05-02T08:09:13.445Z,14.30
2019-05-02T08:13:31.531Z,14.40
2019-05-02T08:17:53.232Z,14.40
2019-05-02T08:22:13.265Z,14.40
2019-05-02T08:26:27.461Z,14.80
2019-05-02T08:30:45.926Z,14.90
2019-05-02T08:35:05.182Z,15.10
2019-05-02T08:39:25.951Z,15.00
2019-05-02T08:43:44.915Z,15.40
2019-05-02T08:48:00.255Z,15.70
2019-05-02T08:52:17.835Z,15.70
2019-05-02T08:56:34.991Z,16.00
2019-05-02T09:00:51.692Z,15.90
2019-05-02T09:05:09.476Z,16.00
2019-05-02T09:09:28.069Z,16.10
2019-05-02T09:13:46.077Z,16.30
2019-05-02T09:18:02.995Z,16.60
2019-05-02T09:22:19.748Z,16.70
2019-05-02T09:26:38.746Z,17.00
2019-05-02T09:30:57.270Z,17.20
2019-05-02T09:35:14.393Z,17.50
2019-05-02T09:39:32.764Z,17.90
2019-05-02T09:43:49.543Z,18.10
2019-05-02T09:48:08.148Z,18.20
2019-05-02T09:52:24.533Z,18.60
2019-05-02T09:56:42.967Z,18.70
2019-05-02T15:07:26.583Z,29.10
2019-05-02T15:11:58.665Z,29.10
2019-05-02T15:16:20.061Z,29.50
2019-05-02T15:20:39.529Z,29.40
2019-05-02T15:25:02.732Z,27.60
2019-05-02T15:29:27.123Z,24.50
2019-05-02T15:33:48.822Z,22.20
2019-05-02T15:38:08.979Z,21.00
2019-05-02T15:42:25.992Z,20.30
2019-05-02T15:46:42.638Z,20.00
2019-05-02T15:51:00.026Z,20.10
2019-05-02T15:55:17.923Z,20.50
2019-05-02T15:59:42.275Z,20.50
2019-05-02T16:05:16.001Z,20.20
2019-05-02T16:09:16.646Z,19.90
2019-05-02T16:13:33.269Z,19.60
2019-05-02T16:18:05.211Z,19.30
2019-05-02T16:22:23.037Z,18.90
2019-05-02T16:26:44.899Z,18.50
2019-05-02T16:31:01.809Z,18.10
2019-05-02T16:35:22.225Z,17.90
2019-05-02T16:39:42.496Z,17.80
2019-05-02T16:43:57.520Z,17.70
2019-05-02T16:48:14.425Z,17.50
2019-05-02T16:52:37.978Z,17.40
2019-05-02T16:56:52.428Z,17.10
2019-05-02T17:01:09.436Z,17.00
2019-05-02T17:05:26.050Z,16.80
2019-05-02T17:09:57.399Z,16.70
2019-05-02T17:14:14.379Z,16.50
2019-05-02T17:18:33.215Z,16.40
2019-05-02T17:22:50.503Z,16.20
2019-05-02T17:27:13.039Z,16.20
2019-05-02T17:31:29.416Z,16.00
2019-05-02T17:35:51.239Z,16.00
2019-05-02T17:40:05.419Z,16.00
2019-05-02T17:44:24.667Z,16.10
2019-05-02T17:48:42.940Z,16.00
2019-05-02T17:53:03.017Z,15.90
2019-05-02T17:57:21.547Z,15.80
2019-05-02T18:01:41.826Z,15.80
2019-05-02T18:05:58.621Z,15.80
2019-05-02T18:10:21.877Z,15.80
2019-05-02T18:14:33.821Z,15.80
2019-05-02T18:18:53.601Z,15.70
2019-05-02T18:23:12.100Z,15.50
2019-05-02T18:27:29.608Z,15.20
2019-05-02T18:31:47.624Z,15.00
2019-05-02T18:36:05.080Z,14.80
2019-05-02T18:40:27.718Z,14.50
2019-05-02T18:44:48.262Z,14.20
2019-05-02T18:49:07.702Z,13.90
2019-05-02T18:53:27.247Z,13.60
2019-05-02T18:57:43.427Z,13.30
2019-05-02T19:02:02.185Z,13.00
2019-05-02T19:06:22.383Z,12.80
2019-05-02T19:10:44.713Z,12.80
2019-05-02T19:15:03.239Z,12.70
2019-05-02T19:19:17.201Z,12.50
2019-05-02T19:23:38.374Z,12.40
2019-05-02T19:28:04.043Z,12.20
2019-05-02T19:32:25.501Z,12.10
2019-05-02T19:36:41.673Z,12.00
2019-05-02T19:41:05.462Z,12.00
2019-05-02T19:45:21.724Z,11.80
2019-05-02T19:49:38.764Z,11.60
2019-05-02T19:53:59.408Z,11.40
2019-05-02T19:58:16.905Z,11.20
2019-05-02T20:02:37.452Z,11.00
2019-05-02T20:06:52.031Z,10.90
2019-05-02T20:11:09.123Z,10.70
2019-05-02T20:15:30.303Z,10.50
2019-05-02T20:19:48.200Z,10.40
2019-05-02T20:24:09.193Z,10.20
2019-05-02T20:28:23.420Z,10.10
2019-05-02T20:32:40.305Z,10.00
2019-05-02T20:36:56.986Z,9.90
2019-05-02T20:41:13.638Z,9.80
2019-05-02T20:45:32.144Z,9.70
2019-05-02T20:49:49.297Z,9.60
2019-05-02T20:54:05.929Z,9.50
2019-05-02T20:58:22.533Z,9.40
2019-05-02T21:02:39.459Z,9.30
2019-05-02T21:06:58.536Z,9.20
2019-05-02T21:11:15.206Z,9.10
2019-05-02T21:15:32.345Z,9.10
2019-05-02T21:19:49.085Z,9.10
2019-05-02T21:24:05.541Z,9.10
2019-05-02T21:28:22.738Z,9.10
2019-05-02T21:32:39.995Z,9.00
2019-05-02T21:36:56.542Z,9.00
2019-05-02T21:41:13.543Z,9.00
2019-05-02T21:45:31.671Z,9.10
2019-05-02T21:49:52.465Z,9.10
2019-05-02T21:54:26.526Z,9.20
2019-05-02T21:58:45.293Z,9.30
2019-05-02T22:03:01.960Z,9.40
2019-05-02T22:07:18.621Z,9.40
2019-05-02T22:11:36.786Z,9.40
2019-05-02T22:15:53.410Z,9.40
2019-05-02T22:20:10.010Z,9.40
2019-05-02T22:24:26.478Z,9.40
2019-05-02T22:28:42.964Z,9.30
2019-05-02T22:32:59.420Z,9.20
2019-05-02T22:37:17.946Z,9.10
2019-05-02T22:41:34.485Z,9.10
2019-05-02T22:45:50.968Z,9.10
2019-05-02T22:50:07.944Z,9.20
2019-05-02T22:54:30.295Z,9.30
2019-05-02T22:58:42.936Z,9.30
2019-05-02T23:02:59.619Z,9.20
2019-05-02T23:07:16.229Z,9.20
2019-05-02T23:11:33.143Z,9.10
2019-05-02T23:15:49.616Z,9.00
2019-05-02T23:20:06.672Z,8.90
2019-05-02T23:24:37.051Z,8.80
2019-05-02T23:28:51.755Z,8.80
2019-05-02T23:33:08.804Z,8.70
2019-05-02T23:37:25.286Z,8.80
2019-05-02T23:41:42.184Z,8.90
2019-05-02T23:45:58.961Z,8.90
2019-05-02T23:50:16.107Z,8.90
2019-05-02T23:54:32.856Z,9.00
2019-05-02T23:58:49.344Z,9.10
